createdAt,value
2017-03-05T00:04:00.954Z,99.99
2017-03-05T00:08:58.022Z,99.99
2017-03-05T00:13:54.673Z,99.99
2017-03-05T00:18:51.293Z,99.99
2017-03-05T00:23:47.790Z,99.99
2017-03-05T00:28:44.395Z,99.99
2017-03-05T00:33:40.958Z,99.99
2017-03-05T00:38:37.403Z,99.99
2017-03-05T00:43:33.883Z,99.99
2017-03-05T00:48:30.283Z,99.99
2017-03-05T00:53:26.713Z,99.99
2017-03-05T00:58:23.439Z,99.99
2017-03-05T01:03:19.957Z,99.99
2017-03-05T01:08:17.026Z,99.99
2017-03-05T01:13:13.649Z,99.99
2017-03-05T01:18:10.236Z,99.99
2017-03-05T01:23:06.653Z,99.99
2017-03-05T01:28:03.142Z,99.99
2017-03-05T01:33:00.809Z,99.99
2017-03-05T01:37:57.379Z,99.99
2017-03-05T01:42:53.738Z,99.99
2017-03-05T01:47:50.567Z,99.99
2017-03-05T01:52:47.425Z,99.99
2017-03-05T01:57:44.357Z,99.99
2017-03-05T02:07:46.062Z,99.99
2017-03-05T02:12:42.636Z,99.99
2017-03-05T02:17:39.195Z,99.99
2017-03-05T02:22:36.822Z,99.99
2017-03-05T02:27:33.677Z,99.99
2017-03-05T02:32:31.002Z,99.99
2017-03-05T02:37:28.152Z,99.99
2017-03-05T02:42:25.043Z,99.99
2017-03-05T02:47:22.191Z,99.99
2017-03-05T02:52:18.948Z,99.99
2017-03-05T02:57:16.526Z,99.99
2017-03-05T03:02:13.177Z,99.99
2017-03-05T03:07:10.035Z,99.99
2017-03-05T03:12:06.851Z,99.99
2017-03-05T03:17:03.550Z,99.99
2017-03-05T03:22:00.306Z,99.99
2017-03-05T03:26:57.456Z,99.99
2017-03-05T03:31:54.085Z,99.99
2017-03-05T03:36:50.593Z,99.99
2017-03-05T03:41:47.639Z,99.99
2017-03-05T03:46:44.445Z,99.99
2017-03-05T03:51:41.049Z,99.99
2017-03-05T03:56:37.922Z,99.99
2017-03-05T04:01:34.508Z,99.99
2017-03-05T04:06:31.318Z,99.99
2017-03-05T04:11:28.382Z,99.99
2017-03-05T04:16:24.848Z,99.99
2017-03-05T04:21:21.347Z,99.99
2017-03-05T04:26:18.445Z,99.99
2017-03-05T04:31:14.841Z,99.99
2017-03-05T04:36:11.565Z,99.99
2017-03-05T04:41:07.818Z,99.99
2017-03-05T04:46:04.942Z,99.99
2017-03-05T04:51:01.459Z,99.99
2017-03-05T04:55:59.114Z,99.99
2017-03-05T05:00:55.724Z,99.99
2017-03-05T05:05:52.394Z,99.99
2017-03-05T05:10:49.244Z,99.99
2017-03-05T05:15:46.840Z,99.99
2017-03-05T05:20:43.668Z,99.99
2017-03-05T05:25:39.963Z,99.99
2017-03-05T05:30:37.011Z,99.99
2017-03-05T05:35:33.648Z,99.99
2017-03-05T05:40:30.185Z,99.99
2017-03-05T05:45:26.839Z,99.99
2017-03-05T05:50:23.409Z,99.99
2017-03-05T05:55:20.022Z,99.99
2017-03-05T06:00:17.216Z,99.99
2017-03-05T06:05:14.185Z,99.99
2017-03-05T06:10:10.841Z,99.99
2017-03-05T06:15:08.393Z,99.99
2017-03-05T06:20:04.850Z,99.99
2017-03-05T06:25:01.440Z,99.99
2017-03-05T06:29:58.560Z,99.99
2017-03-05T06:34:55.218Z,99.99
2017-03-05T06:39:51.946Z,99.99
2017-03-05T06:44:49.492Z,99.99
2017-03-05T06:49:46.586Z,99.99
2017-03-05T06:54:44.249Z,99.99
2017-03-05T06:59:41.644Z,99.99
2017-03-05T07:04:38.098Z,99.99
2017-03-05T07:09:34.827Z,99.99
2017-03-05T07:14:31.657Z,99.99
2017-03-05T07:19:28.806Z,99.99
2017-03-05T07:24:25.707Z,99.99
2017-03-05T07:29:23.063Z,99.99
2017-03-05T07:34:20.509Z,99.99
2017-03-05T07:39:17.645Z,99.93
2017-03-05T07:44:14.928Z,99.16
2017-03-05T07:49:12.212Z,98.88
2017-03-05T07:54:08.861Z,98.03
2017-03-05T07:59:06.032Z,99.84
2017-03-05T08:04:02.583Z,98.93
2017-03-05T08:08:59.584Z,96.55
2017-03-05T08:13:56.562Z,97.13
2017-03-05T08:18:54.171Z,97.31
2017-03-05T08:23:50.477Z,97.13
2017-03-05T08:28:47.389Z,96.08
2017-03-05T08:33:44.690Z,95.98
2017-03-05T08:38:41.621Z,95.22
2017-03-05T08:43:38.177Z,95.79
2017-03-05T08:48:35.218Z,96.36
2017-03-05T08:53:31.725Z,96.03
2017-03-05T08:58:28.322Z,95.98
2017-03-05T09:03:25.861Z,94.84
2017-03-05T09:08:23.501Z,94.27
2017-03-05T09:13:20.157Z,94.18
2017-03-05T09:18:17.640Z,93.23
2017-03-05T09:23:17.244Z,92.22
2017-03-05T09:28:15.734Z,90.80
2017-03-05T09:33:12.470Z,89.61
2017-03-05T09:38:09.747Z,85.03
2017-03-05T09:43:06.563Z,85.93
2017-03-05T09:48:03.565Z,83.65
2017-03-05T09:53:00.957Z,80.35
2017-03-05T09:57:58.679Z,78.01
2017-03-05T10:02:56.089Z,76.39
2017-03-05T10:07:54.192Z,75.24
2017-03-05T10:12:53.584Z,78.27
2017-03-05T10:17:49.751Z,80.94
2017-03-05T10:22:49.239Z,78.59
2017-03-05T10:27:45.872Z,78.59
2017-03-05T10:32:42.929Z,76.44
2017-03-05T10:37:41.383Z,72.38
2017-03-05T10:42:39.573Z,70.00
2017-03-05T10:47:35.819Z,69.43
2017-03-05T10:52:32.882Z,69.10
2017-03-05T10:57:30.355Z,71.11
2017-03-05T11:02:26.808Z,68.09
2017-03-05T11:07:24.293Z,64.97
2017-03-05T11:12:22.572Z,59.53
2017-03-05T11:17:19.632Z,59.76
2017-03-05T11:22:15.672Z,62.02
2017-03-05T11:27:12.355Z,62.08
2017-03-05T11:32:09.923Z,56.51
2017-03-05T11:37:07.583Z,53.89
2017-03-05T11:42:03.977Z,56.20
2017-03-05T11:47:00.868Z,59.51
2017-03-05T11:51:57.642Z,58.29
2017-03-05T11:56:55.057Z,57.24
2017-03-05T12:01:51.589Z,59.70
2017-03-05T12:06:48.955Z,57.56
2017-03-05T12:11:45.120Z,60.08
2017-03-05T12:16:42.326Z,60.65
2017-03-05T12:21:38.712Z,60.84
2017-03-05T12:26:36.954Z,59.12
2017-03-05T12:31:33.798Z,59.51
2017-03-05T12:36:32.118Z,56.67
2017-03-05T12:41:29.816Z,55.87
2017-03-05T12:46:25.977Z,56.77
2017-03-05T12:51:24.003Z,58.07
2017-03-05T12:56:20.339Z,57.31
2017-03-05T13:01:17.629Z,57.98
2017-03-05T13:06:13.922Z,57.50
2017-03-05T13:11:10.600Z,58.07
2017-03-05T13:16:08.498Z,58.72
2017-03-05T13:21:05.258Z,56.20
2017-03-05T13:26:02.549Z,55.84
2017-03-05T13:30:59.461Z,56.29
2017-03-05T13:35:55.859Z,56.26
2017-03-05T13:40:53.757Z,54.22
2017-03-05T13:45:54.915Z,54.60
2017-03-05T13:50:50.187Z,56.01
2017-03-05T13:55:46.668Z,54.89
2017-03-05T14:00:46.472Z,55.65
2017-03-05T14:05:42.862Z,56.01
2017-03-05T14:10:39.397Z,56.48
2017-03-05T14:15:36.089Z,56.51
2017-03-05T14:20:33.337Z,56.29
2017-03-05T14:25:30.068Z,56.96
2017-03-05T14:30:26.931Z,56.01
2017-03-05T14:35:23.487Z,55.34
2017-03-05T14:40:21.159Z,55.05
2017-03-05T14:45:19.033Z,51.93
2017-03-05T14:50:16.667Z,49.54
2017-03-05T14:55:13.919Z,48.99
2017-03-05T15:00:10.834Z,49.44
2017-03-05T15:05:07.339Z,52.83
2017-03-05T15:10:03.582Z,56.36
2017-03-05T15:15:01.210Z,56.90
2017-03-05T15:19:57.888Z,58.33
2017-03-05T15:24:54.654Z,59.57
2017-03-05T15:29:50.719Z,61.86
2017-03-05T15:34:48.626Z,62.91
2017-03-05T15:39:45.024Z,63.83
2017-03-05T15:44:42.313Z,64.59
2017-03-05T15:49:39.253Z,64.02
2017-03-05T15:54:35.869Z,63.26
2017-03-05T15:59:32.367Z,63.51
2017-03-05T16:04:29.281Z,64.37
2017-03-05T16:09:25.974Z,66.08
2017-03-05T16:14:22.751Z,69.23
2017-03-05T16:19:22.268Z,72.14
2017-03-05T16:24:18.394Z,73.95
2017-03-05T16:29:16.173Z,74.71
2017-03-05T16:34:13.238Z,75.28
2017-03-05T16:39:09.801Z,79.57
2017-03-05T16:44:07.471Z,85.47
2017-03-05T16:49:04.735Z,88.13
2017-03-05T16:54:01.234Z,87.85
2017-03-05T16:58:58.074Z,86.71
2017-03-05T17:03:54.213Z,87.85
2017-03-05T17:08:52.044Z,87.95
2017-03-05T17:13:48.871Z,89.94
2017-03-05T17:18:45.183Z,90.89
2017-03-05T17:23:41.772Z,90.61
2017-03-05T17:28:38.371Z,90.61
2017-03-05T17:33:35.097Z,90.70
2017-03-05T17:38:31.664Z,90.70
2017-03-05T17:43:29.273Z,90.52
2017-03-05T17:48:25.715Z,89.75
2017-03-05T17:53:22.307Z,90.52
2017-03-05T17:58:20.032Z,91.08
2017-03-05T18:03:16.822Z,90.89
2017-03-05T18:08:13.318Z,91.85
2017-03-05T18:13:09.887Z,90.47
2017-03-05T18:18:06.854Z,90.56
2017-03-05T18:23:03.527Z,91.89
2017-03-05T18:28:00.145Z,94.18
2017-03-05T18:32:56.505Z,97.07
2017-03-05T18:37:53.048Z,97.36
2017-03-05T18:42:49.528Z,99.99
2017-03-05T18:47:45.531Z,99.99
2017-03-05T18:52:41.907Z,99.99
2017-03-05T18:57:38.255Z,99.99
2017-03-05T19:02:34.702Z,99.99
2017-03-05T19:07:31.102Z,99.99
2017-03-05T19:12:27.135Z,99.99
2017-03-05T19:17:23.595Z,99.99
2017-03-05T19:22:20.636Z,99.99
2017-03-05T19:27:16.925Z,99.99
2017-03-05T19:32:14.196Z,99.99
2017-03-05T19:37:10.575Z,99.99
2017-03-05T19:42:07.704Z,99.99
2017-03-05T19:47:06.725Z,99.99
2017-03-05T19:52:03.001Z,99.68
2017-03-05T19:57:00.406Z,99.99
2017-03-05T20:01:56.923Z,99.99
2017-03-05T20:06:53.784Z,99.97
2017-03-05T20:11:49.720Z,98.92
2017-03-05T20:16:46.144Z,99.02
2017-03-05T20:21:44.849Z,99.11
2017-03-05T20:26:41.374Z,99.58
2017-03-05T20:31:38.952Z,98.83
2017-03-05T20:36:35.102Z,97.97
2017-03-05T20:41:34.262Z,98.92
2017-03-05T20:46:30.775Z,99.97
2017-03-05T20:51:27.954Z,99.99
2017-03-05T20:56:25.646Z,99.87
2017-03-05T21:01:22.137Z,99.40
2017-03-05T21:06:19.140Z,98.64
2017-03-05T21:11:15.481Z,99.64
2017-03-05T21:16:13.193Z,99.26
2017-03-05T21:21:09.478Z,99.26
2017-03-05T21:26:06.737Z,99.92
2017-03-05T21:31:03.431Z,99.87
2017-03-05T21:36:00.737Z,99.83
2017-03-05T21:40:57.253Z,99.99
2017-03-05T21:45:53.773Z,99.99
2017-03-05T21:50:50.115Z,99.99
2017-03-05T21:55:47.007Z,99.87
2017-03-05T22:00:43.507Z,99.99
2017-03-05T22:05:41.060Z,99.99
2017-03-05T22:10:36.892Z,99.99
2017-03-05T22:15:33.757Z,99.99
2017-03-05T22:20:30.178Z,99.99
2017-03-05T22:25:26.915Z,99.99
2017-03-05T22:30:24.021Z,99.99
2017-03-05T22:35:20.547Z,99.99
2017-03-05T22:40:17.359Z,99.99
2017-03-05T22:45:14.034Z,99.99
2017-03-05T22:50:10.911Z,99.99
2017-03-05T22:55:07.944Z,99.99
2017-03-05T23:00:04.348Z,99.99
2017-03-05T23:05:00.984Z,99.99
2017-03-05T23:09:58.064Z,99.99
2017-03-05T23:14:55.977Z,99.99
2017-03-05T23:19:52.756Z,99.99
2017-03-05T23:24:49.241Z,99.99
2017-03-05T23:29:46.261Z,99.99
2017-03-05T23:34:44.434Z,99.99
2017-03-05T23:39:41.377Z,99.99
2017-03-05T23:44:38.435Z,99.99
2017-03-05T23:49:35.623Z,99.99
2017-03-05T23:54:32.652Z,99.99
2017-03-05T23:59:29.135Z,99.99
